sensor_id;sensor_type;location;lat;lon;timestamp;P1;durP1;ratioP1;P2;durP2;ratioP2
71207;SDS011;58938;49.868;8.646;2023-06-10T00:00:45;14.13;;;10.93;;
71207;SDS011;58938;49.868;8.646;2023-06-10T00:03:11;14.90;;;10.52;;
71207;SDS011;58938;49.868;8.646;2023-06-10T00:05:38;15.13;;;10.30;;
71207;SDS011;58938;49.868;8.646;2023-06-10T00:08:04;13.40;;;10.90;;
71207;SDS011;58938;49.868;8.646;2023-06-10T00:10:34;13.63;;;11.05;;
71207;SDS011;58938;49.868;8.646;2023-06-10T00:13:00;12.77;;;10.93;;
71207;SDS011;58938;49.868;8.646;2023-06-10T00:15:27;14.93;;;10.80;;
71207;SDS011;58938;49.868;8.646;2023-06-10T00:17:53;14.90;;;11.02;;
71207;SDS011;58938;49.868;8.646;2023-06-10T00:20:20;13.97;;;11.33;;
71207;SDS011;58938;49.868;8.646;2023-06-10T00:22:46;16.52;;;11.70;;
71207;SDS011;58938;49.868;8.646;2023-06-10T00:25:13;13.63;;;10.38;;
71207;SDS011;58938;49.868;8.646;2023-06-10T00:27:39;13.75;;;10.60;;
71207;SDS011;58938;49.868;8.646;2023-06-10T00:30:06;15.07;;;11.20;;
71207;SDS011;58938;49.868;8.646;2023-06-10T00:32:33;13.77;;;10.13;;
71207;SDS011;58938;49.868;8.646;2023-06-10T00:34:59;13.35;;;10.48;;
71207;SDS011;58938;49.868;8.646;2023-06-10T00:37:25;14.38;;;10.43;;
71207;SDS011;58938;49.868;8.646;2023-06-10T00:39:51;13.00;;;9.85;;
71207;SDS011;58938;49.868;8.646;2023-06-10T00:42:17;15.05;;;11.00;;
71207;SDS011;58938;49.868;8.646;2023-06-10T00:44:44;13.50;;;10.90;;
71207;SDS011;58938;49.868;8.646;2023-06-10T00:47:10;16.80;;;10.95;;
71207;SDS011;58938;49.868;8.646;2023-06-10T00:49:36;14.85;;;10.55;;
71207;SDS011;58938;49.868;8.646;2023-06-10T00:52:02;14.10;;;10.75;;
71207;SDS011;58938;49.868;8.646;2023-06-10T00:54:29;12.83;;;10.43;;
71207;SDS011;58938;49.868;8.646;2023-06-10T00:56:55;13.57;;;10.68;;
71207;SDS011;58938;49.868;8.646;2023-06-10T00:59:22;13.73;;;10.70;;
71207;SDS011;58938;49.868;8.646;2023-06-10T01:01:50;13.05;;;10.05;;
71207;SDS011;58938;49.868;8.646;2023-06-10T01:04:17;14.75;;;11.52;;
71207;SDS011;58938;49.868;8.646;2023-06-10T01:06:50;14.37;;;11.33;;
71207;SDS011;58938;49.868;8.646;2023-06-10T01:11:53;13.35;;;11.13;;
71207;SDS011;58938;49.868;8.646;2023-06-10T01:14:21;13.00;;;9.93;;
71207;SDS011;58938;49.868;8.646;2023-06-10T01:16:48;14.20;;;10.50;;
71207;SDS011;58938;49.868;8.646;2023-06-10T01:19:14;13.23;;;10.13;;
71207;SDS011;58938;49.868;8.646;2023-06-10T01:21:42;13.15;;;10.00;;
71207;SDS011;58938;49.868;8.646;2023-06-10T01:24:09;12.77;;;10.52;;
71207;SDS011;58938;49.868;8.646;2023-06-10T01:26:36;15.27;;;10.75;;
71207;SDS011;58938;49.868;8.646;2023-06-10T01:29:07;15.07;;;9.98;;
71207;SDS011;58938;49.868;8.646;2023-06-10T01:31:43;16.37;;;10.70;;
71207;SDS011;58938;49.868;8.646;2023-06-10T01:34:12;13.27;;;10.85;;
71207;SDS011;58938;49.868;8.646;2023-06-10T01:36:40;15.90;;;10.75;;
71207;SDS011;58938;49.868;8.646;2023-06-10T01:39:06;13.75;;;10.93;;
71207;SDS011;58938;49.868;8.646;2023-06-10T01:41:33;14.25;;;11.23;;
71207;SDS011;58938;49.868;8.646;2023-06-10T01:44:00;14.20;;;11.30;;
71207;SDS011;58938;49.868;8.646;2023-06-10T01:46:26;13.57;;;11.05;;
71207;SDS011;58938;49.868;8.646;2023-06-10T01:48:52;15.68;;;11.25;;
71207;SDS011;58938;49.868;8.646;2023-06-10T01:51:18;18.25;;;10.93;;
71207;SDS011;58938;49.868;8.646;2023-06-10T01:53:44;13.98;;;11.25;;
71207;SDS011;58938;49.868;8.646;2023-06-10T01:56:10;14.80;;;11.57;;
71207;SDS011;58938;49.868;8.646;2023-06-10T01:58:41;13.32;;;11.25;;
71207;SDS011;58938;49.868;8.646;2023-06-10T02:01:08;13.20;;;11.18;;
71207;SDS011;58938;49.868;8.646;2023-06-10T02:03:34;14.30;;;10.98;;
71207;SDS011;58938;49.868;8.646;2023-06-10T02:06:00;15.55;;;10.35;;
71207;SDS011;58938;49.868;8.646;2023-06-10T02:08:25;13.80;;;10.97;;
71207;SDS011;58938;49.868;8.646;2023-06-10T02:10:52;14.70;;;11.05;;
71207;SDS011;58938;49.868;8.646;2023-06-10T02:13:18;13.43;;;11.20;;
71207;SDS011;58938;49.868;8.646;2023-06-10T02:15:45;14.45;;;11.10;;
71207;SDS011;58938;49.868;8.646;2023-06-10T02:18:11;14.87;;;11.17;;
71207;SDS011;58938;49.868;8.646;2023-06-10T02:20:37;14.70;;;10.43;;
71207;SDS011;58938;49.868;8.646;2023-06-10T02:23:03;15.18;;;11.93;;
71207;SDS011;58938;49.868;8.646;2023-06-10T02:25:29;13.73;;;10.68;;
71207;SDS011;58938;49.868;8.646;2023-06-10T02:27:55;15.00;;;10.67;;
71207;SDS011;58938;49.868;8.646;2023-06-10T02:30:21;14.80;;;11.70;;
71207;SDS011;58938;49.868;8.646;2023-06-10T02:32:47;13.80;;;10.73;;
71207;SDS011;58938;49.868;8.646;2023-06-10T02:35:13;14.05;;;11.00;;
71207;SDS011;58938;49.868;8.646;2023-06-10T02:37:40;13.70;;;9.73;;
71207;SDS011;58938;49.868;8.646;2023-06-10T02:40:06;14.00;;;10.52;;
71207;SDS011;58938;49.868;8.646;2023-06-10T02:42:33;12.15;;;10.52;;
71207;SDS011;58938;49.868;8.646;2023-06-10T02:44:59;13.70;;;10.80;;
71207;SDS011;58938;49.868;8.646;2023-06-10T02:47:25;14.52;;;11.52;;
71207;SDS011;58938;49.868;8.646;2023-06-10T02:49:52;14.43;;;10.67;;
71207;SDS011;58938;49.868;8.646;2023-06-10T02:52:17;13.27;;;10.77;;
71207;SDS011;58938;49.868;8.646;2023-06-10T02:54:43;14.00;;;11.00;;
71207;SDS011;58938;49.868;8.646;2023-06-10T02:57:10;14.55;;;11.40;;
71207;SDS011;58938;49.868;8.646;2023-06-10T02:59:36;16.63;;;12.30;;
71207;SDS011;58938;49.868;8.646;2023-06-10T03:02:02;19.03;;;13.40;;
71207;SDS011;58938;49.868;8.646;2023-06-10T03:04:28;24.70;;;15.02;;
71207;SDS011;58938;49.868;8.646;2023-06-10T03:06:55;22.38;;;15.40;;
71207;SDS011;58938;49.868;8.646;2023-06-10T03:09:21;25.85;;;16.05;;
71207;SDS011;58938;49.868;8.646;2023-06-10T03:11:47;21.93;;;14.17;;
71207;SDS011;58938;49.868;8.646;2023-06-10T03:14:13;23.08;;;14.02;;
71207;SDS011;58938;49.868;8.646;2023-06-10T03:16:39;20.58;;;13.98;;
71207;SDS011;58938;49.868;8.646;2023-06-10T03:19:05;21.27;;;13.38;;
71207;SDS011;58938;49.868;8.646;2023-06-10T03:21:33;18.73;;;12.97;;
71207;SDS011;58938;49.868;8.646;2023-06-10T03:23:59;20.48;;;12.30;;
71207;SDS011;58938;49.868;8.646;2023-06-10T03:26:25;16.52;;;12.02;;
71207;SDS011;58938;49.868;8.646;2023-06-10T03:28:52;15.80;;;11.38;;
71207;SDS011;58938;49.868;8.646;2023-06-10T03:31:18;15.75;;;11.50;;
71207;SDS011;58938;49.868;8.646;2023-06-10T03:33:44;16.23;;;11.33;;
71207;SDS011;58938;49.868;8.646;2023-06-10T03:36:10;15.68;;;10.80;;
71207;SDS011;58938;49.868;8.646;2023-06-10T03:38:36;16.33;;;11.10;;
71207;SDS011;58938;49.868;8.646;2023-06-10T03:41:02;14.15;;;11.45;;
71207;SDS011;58938;49.868;8.646;2023-06-10T03:43:28;14.70;;;10.55;;
71207;SDS011;58938;49.868;8.646;2023-06-10T03:45:56;13.67;;;10.70;;
71207;SDS011;58938;49.868;8.646;2023-06-10T03:48:22;17.42;;;12.02;;
71207;SDS011;58938;49.868;8.646;2023-06-10T03:50:48;16.75;;;11.10;;
71207;SDS011;58938;49.868;8.646;2023-06-10T03:53:16;14.73;;;11.15;;
71207;SDS011;58938;49.868;8.646;2023-06-10T03:55:42;16.00;;;10.87;;
71207;SDS011;58938;49.868;8.646;2023-06-10T03:58:08;14.52;;;11.38;;
71207;SDS011;58938;49.868;8.646;2023-06-10T04:00:34;15.05;;;10.90;;
71207;SDS011;58938;49.868;8.646;2023-06-10T04:03:06;13.82;;;11.45;;
71207;SDS011;58938;49.868;8.646;2023-06-10T04:05:34;15.77;;;10.95;;
71207;SDS011;58938;49.868;8.646;2023-06-10T04:07:59;14.47;;;11.37;;
71207;SDS011;58938;49.868;8.646;2023-06-10T04:10:26;17.08;;;11.95;;
71207;SDS011;58938;49.868;8.646;2023-06-10T04:12:52;16.23;;;11.25;;
71207;SDS011;58938;49.868;8.646;2023-06-10T04:15:18;13.55;;;10.82;;
71207;SDS011;58938;49.868;8.646;2023-06-10T04:17:44;13.20;;;10.85;;
71207;SDS011;58938;49.868;8.646;2023-06-10T04:20:10;14.73;;;11.00;;
71207;SDS011;58938;49.868;8.646;2023-06-10T04:22:36;15.77;;;11.38;;
71207;SDS011;58938;49.868;8.646;2023-06-10T04:25:02;15.10;;;10.70;;
71207;SDS011;58938;49.868;8.646;2023-06-10T04:27:29;14.68;;;10.02;;
71207;SDS011;58938;49.868;8.646;2023-06-10T04:29:55;15.93;;;11.07;;
71207;SDS011;58938;49.868;8.646;2023-06-10T04:32:21;15.43;;;10.65;;
71207;SDS011;58938;49.868;8.646;2023-06-10T04:34:48;16.77;;;10.85;;
71207;SDS011;58938;49.868;8.646;2023-06-10T04:37:14;14.43;;;10.52;;
71207;SDS011;58938;49.868;8.646;2023-06-10T04:39:40;17.20;;;10.70;;
71207;SDS011;58938;49.868;8.646;2023-06-10T04:42:06;12.98;;;10.25;;
71207;SDS011;58938;49.868;8.646;2023-06-10T04:44:32;13.75;;;9.95;;
71207;SDS011;58938;49.868;8.646;2023-06-10T04:47:00;13.20;;;9.90;;
71207;SDS011;58938;49.868;8.646;2023-06-10T04:49:26;12.60;;;9.73;;
71207;SDS011;58938;49.868;8.646;2023-06-10T04:51:53;13.90;;;9.38;;
71207;SDS011;58938;49.868;8.646;2023-06-10T04:54:19;12.80;;;10.05;;
71207;SDS011;58938;49.868;8.646;2023-06-10T04:56:45;12.77;;;9.75;;
71207;SDS011;58938;49.868;8.646;2023-06-10T04:59:11;13.63;;;9.48;;
71207;SDS011;58938;49.868;8.646;2023-06-10T05:01:39;13.87;;;9.20;;
71207;SDS011;58938;49.868;8.646;2023-06-10T05:04:05;16.15;;;9.77;;
71207;SDS011;58938;49.868;8.646;2023-06-10T05:06:31;14.75;;;9.27;;
71207;SDS011;58938;49.868;8.646;2023-06-10T05:08:57;16.58;;;10.23;;
71207;SDS011;58938;49.868;8.646;2023-06-10T05:11:23;13.43;;;10.47;;
71207;SDS011;58938;49.868;8.646;2023-06-10T05:13:49;17.27;;;9.82;;
71207;SDS011;58938;49.868;8.646;2023-06-10T05:16:15;13.57;;;9.00;;
71207;SDS011;58938;49.868;8.646;2023-06-10T05:18:41;11.80;;;9.35;;
71207;SDS011;58938;49.868;8.646;2023-06-10T05:21:07;12.63;;;9.77;;
71207;SDS011;58938;49.868;8.646;2023-06-10T05:23:33;12.05;;;9.20;;
71207;SDS011;58938;49.868;8.646;2023-06-10T05:25:59;13.65;;;9.15;;
71207;SDS011;58938;49.868;8.646;2023-06-10T05:28:25;14.50;;;10.00;;
71207;SDS011;58938;49.868;8.646;2023-06-10T05:30:51;13.68;;;9.25;;
71207;SDS011;58938;49.868;8.646;2023-06-10T05:33:17;15.25;;;10.27;;
71207;SDS011;58938;49.868;8.646;2023-06-10T05:35:43;13.23;;;9.10;;
71207;SDS011;58938;49.868;8.646;2023-06-10T05:38:09;13.65;;;9.38;;
71207;SDS011;58938;49.868;8.646;2023-06-10T05:40:35;12.77;;;8.73;;
71207;SDS011;58938;49.868;8.646;2023-06-10T05:43:01;14.00;;;9.50;;
71207;SDS011;58938;49.868;8.646;2023-06-10T05:45:27;12.68;;;9.68;;
71207;SDS011;58938;49.868;8.646;2023-06-10T05:47:53;13.38;;;10.10;;
71207;SDS011;58938;49.868;8.646;2023-06-10T05:50:19;12.83;;;9.97;;
71207;SDS011;58938;49.868;8.646;2023-06-10T05:52:45;15.52;;;9.25;;
71207;SDS011;58938;49.868;8.646;2023-06-10T05:55:11;12.45;;;10.00;;
71207;SDS011;58938;49.868;8.646;2023-06-10T05:57:37;12.57;;;9.73;;
71207;SDS011;58938;49.868;8.646;2023-06-10T06:00:03;12.60;;;8.70;;
71207;SDS011;58938;49.868;8.646;2023-06-10T06:02:29;13.85;;;9.45;;
71207;SDS011;58938;49.868;8.646;2023-06-10T06:04:55;13.05;;;9.50;;
71207;SDS011;58938;49.868;8.646;2023-06-10T06:07:21;12.57;;;9.05;;
71207;SDS011;58938;49.868;8.646;2023-06-10T06:09:47;12.05;;;9.25;;
71207;SDS011;58938;49.868;8.646;2023-06-10T06:12:13;11.20;;;8.77;;
71207;SDS011;58938;49.868;8.646;2023-06-10T06:14:39;11.20;;;9.05;;
71207;SDS011;58938;49.868;8.646;2023-06-10T06:17:05;13.95;;;9.32;;
71207;SDS011;58938;49.868;8.646;2023-06-10T06:19:31;13.32;;;9.77;;
71207;SDS011;58938;49.868;8.646;2023-06-10T06:21:57;11.27;;;9.23;;
71207;SDS011;58938;49.868;8.646;2023-06-10T06:24:23;13.90;;;9.77;;
71207;SDS011;58938;49.868;8.646;2023-06-10T06:26:49;12.75;;;9.32;;
71207;SDS011;58938;49.868;8.646;2023-06-10T06:29:15;12.98;;;9.23;;
71207;SDS011;58938;49.868;8.646;2023-06-10T06:31:41;12.35;;;8.95;;
71207;SDS011;58938;49.868;8.646;2023-06-10T06:34:07;14.67;;;9.27;;
71207;SDS011;58938;49.868;8.646;2023-06-10T06:36:33;13.40;;;8.48;;
71207;SDS011;58938;49.868;8.646;2023-06-10T06:38:59;15.05;;;8.85;;
71207;SDS011;58938;49.868;8.646;2023-06-10T06:41:28;13.88;;;9.32;;
71207;SDS011;58938;49.868;8.646;2023-06-10T06:43:54;10.80;;;8.20;;
71207;SDS011;58938;49.868;8.646;2023-06-10T06:46:20;11.85;;;9.02;;
71207;SDS011;58938;49.868;8.646;2023-06-10T06:48:47;13.45;;;8.73;;
71207;SDS011;58938;49.868;8.646;2023-06-10T06:51:13;13.75;;;8.50;;
71207;SDS011;58938;49.868;8.646;2023-06-10T06:53:39;11.32;;;8.77;;
71207;SDS011;58938;49.868;8.646;2023-06-10T06:56:11;10.30;;;8.03;;
71207;SDS011;58938;49.868;8.646;2023-06-10T06:58:37;11.30;;;8.77;;
71207;SDS011;58938;49.868;8.646;2023-06-10T07:01:04;10.60;;;8.05;;
71207;SDS011;58938;49.868;8.646;2023-06-10T07:03:30;12.80;;;8.70;;
71207;SDS011;58938;49.868;8.646;2023-06-10T07:05:56;16.50;;;8.10;;
71207;SDS011;58938;49.868;8.646;2023-06-10T07:08:21;16.03;;;8.10;;
71207;SDS011;58938;49.868;8.646;2023-06-10T07:10:47;13.77;;;8.73;;
71207;SDS011;58938;49.868;8.646;2023-06-10T07:13:14;14.10;;;8.73;;
71207;SDS011;58938;49.868;8.646;2023-06-10T07:15:40;11.88;;;8.20;;
71207;SDS011;58938;49.868;8.646;2023-06-10T07:18:06;11.00;;;7.90;;
71207;SDS011;58938;49.868;8.646;2023-06-10T07:20:32;11.63;;;8.20;;
71207;SDS011;58938;49.868;8.646;2023-06-10T07:22:59;12.43;;;8.38;;
71207;SDS011;58938;49.868;8.646;2023-06-10T07:25:25;12.00;;;8.55;;
71207;SDS011;58938;49.868;8.646;2023-06-10T07:27:51;15.13;;;8.90;;
71207;SDS011;58938;49.868;8.646;2023-06-10T07:30:17;13.80;;;9.03;;
71207;SDS011;58938;49.868;8.646;2023-06-10T07:32:43;11.82;;;7.78;;
71207;SDS011;58938;49.868;8.646;2023-06-10T07:35:09;13.43;;;9.30;;
71207;SDS011;58938;49.868;8.646;2023-06-10T07:37:36;12.50;;;8.40;;
71207;SDS011;58938;49.868;8.646;2023-06-10T07:40:02;12.60;;;8.50;;
71207;SDS011;58938;49.868;8.646;2023-06-10T07:42:28;11.70;;;8.57;;
71207;SDS011;58938;49.868;8.646;2023-06-10T07:44:54;10.52;;;8.48;;
71207;SDS011;58938;49.868;8.646;2023-06-10T07:47:20;12.45;;;8.80;;
71207;SDS011;58938;49.868;8.646;2023-06-10T07:49:46;12.57;;;8.75;;
71207;SDS011;58938;49.868;8.646;2023-06-10T07:52:12;11.10;;;8.23;;
71207;SDS011;58938;49.868;8.646;2023-06-10T07:54:38;11.82;;;9.27;;
71207;SDS011;58938;49.868;8.646;2023-06-10T07:57:04;11.63;;;8.98;;
71207;SDS011;58938;49.868;8.646;2023-06-10T07:59:31;10.38;;;8.23;;
71207;SDS011;58938;49.868;8.646;2023-06-10T08:01:57;12.43;;;8.05;;
71207;SDS011;58938;49.868;8.646;2023-06-10T08:04:23;14.27;;;8.73;;
71207;SDS011;58938;49.868;8.646;2023-06-10T08:06:49;12.85;;;8.35;;
71207;SDS011;58938;49.868;8.646;2023-06-10T08:09:16;12.50;;;8.52;;
71207;SDS011;58938;49.868;8.646;2023-06-10T08:11:43;11.60;;;8.73;;
71207;SDS011;58938;49.868;8.646;2023-06-10T08:14:09;14.43;;;9.00;;
71207;SDS011;58938;49.868;8.646;2023-06-10T08:16:35;11.18;;;8.70;;
71207;SDS011;58938;49.868;8.646;2023-06-10T08:19:01;12.90;;;8.88;;
71207;SDS011;58938;49.868;8.646;2023-06-10T08:21:27;14.18;;;9.45;;
71207;SDS011;58938;49.868;8.646;2023-06-10T08:23:53;15.17;;;9.17;;
71207;SDS011;58938;49.868;8.646;2023-06-10T08:26:19;13.18;;;8.90;;
71207;SDS011;58938;49.868;8.646;2023-06-10T08:28:45;12.45;;;9.05;;
71207;SDS011;58938;49.868;8.646;2023-06-10T08:31:11;13.52;;;8.43;;
71207;SDS011;58938;49.868;8.646;2023-06-10T08:33:37;11.73;;;9.10;;
71207;SDS011;58938;49.868;8.646;2023-06-10T08:36:03;12.67;;;9.73;;
71207;SDS011;58938;49.868;8.646;2023-06-10T08:38:29;13.60;;;9.10;;
71207;SDS011;58938;49.868;8.646;2023-06-10T08:40:59;13.18;;;9.43;;
71207;SDS011;58938;49.868;8.646;2023-06-10T08:45:51;12.17;;;9.20;;
71207;SDS011;58938;49.868;8.646;2023-06-10T08:48:19;15.07;;;9.90;;
71207;SDS011;58938;49.868;8.646;2023-06-10T08:50:46;14.07;;;10.32;;
71207;SDS011;58938;49.868;8.646;2023-06-10T08:53:13;15.40;;;9.73;;
71207;SDS011;58938;49.868;8.646;2023-06-10T08:55:44;14.65;;;9.35;;
71207;SDS011;58938;49.868;8.646;2023-06-10T08:58:12;12.63;;;9.23;;
71207;SDS011;58938;49.868;8.646;2023-06-10T09:00:39;13.95;;;10.10;;
71207;SDS011;58938;49.868;8.646;2023-06-10T09:03:05;11.50;;;8.95;;
71207;SDS011;58938;49.868;8.646;2023-06-10T09:05:34;12.55;;;8.98;;
71207;SDS011;58938;49.868;8.646;2023-06-10T09:08:01;11.15;;;9.02;;
71207;SDS011;58938;49.868;8.646;2023-06-10T09:10:27;11.10;;;9.23;;
71207;SDS011;58938;49.868;8.646;2023-06-10T09:12:53;11.23;;;8.57;;
71207;SDS011;58938;49.868;8.646;2023-06-10T09:15:19;12.82;;;8.52;;
71207;SDS011;58938;49.868;8.646;2023-06-10T09:17:46;14.43;;;9.40;;
71207;SDS011;58938;49.868;8.646;2023-06-10T09:20:12;13.20;;;8.68;;
71207;SDS011;58938;49.868;8.646;2023-06-10T09:22:38;12.40;;;9.37;;
71207;SDS011;58938;49.868;8.646;2023-06-10T09:25:07;11.07;;;8.60;;
71207;SDS011;58938;49.868;8.646;2023-06-10T09:27:43;12.85;;;8.55;;
71207;SDS011;58938;49.868;8.646;2023-06-10T09:30:11;11.38;;;8.00;;
71207;SDS011;58938;49.868;8.646;2023-06-10T09:32:49;11.10;;;8.75;;
71207;SDS011;58938;49.868;8.646;2023-06-10T09:35:15;9.67;;;8.00;;
71207;SDS011;58938;49.868;8.646;2023-06-10T09:37:41;12.88;;;9.23;;
71207;SDS011;58938;49.868;8.646;2023-06-10T09:40:11;11.00;;;8.80;;
71207;SDS011;58938;49.868;8.646;2023-06-10T09:42:38;12.32;;;8.77;;
71207;SDS011;58938;49.868;8.646;2023-06-10T09:45:05;12.88;;;9.30;;
71207;SDS011;58938;49.868;8.646;2023-06-10T09:47:31;15.53;;;8.87;;
71207;SDS011;58938;49.868;8.646;2023-06-10T09:49:57;10.68;;;9.40;;
71207;SDS011;58938;49.868;8.646;2023-06-10T09:52:23;13.82;;;8.35;;
71207;SDS011;58938;49.868;8.646;2023-06-10T09:54:50;13.32;;;7.90;;
71207;SDS011;58938;49.868;8.646;2023-06-10T09:57:17;11.85;;;8.00;;
71207;SDS011;58938;49.868;8.646;2023-06-10T09:59:43;12.60;;;8.00;;
71207;SDS011;58938;49.868;8.646;2023-06-10T10:02:16;10.75;;;7.55;;
71207;SDS011;58938;49.868;8.646;2023-06-10T10:04:42;13.68;;;8.15;;
71207;SDS011;58938;49.868;8.646;2023-06-10T10:07:09;11.30;;;7.85;;
71207;SDS011;58938;49.868;8.646;2023-06-10T10:09:36;12.38;;;8.68;;
71207;SDS011;58938;49.868;8.646;2023-06-10T10:12:02;12.47;;;8.90;;
71207;SDS011;58938;49.868;8.646;2023-06-10T10:14:30;13.48;;;8.23;;
71207;SDS011;58938;49.868;8.646;2023-06-10T10:16:57;10.80;;;7.75;;
71207;SDS011;58938;49.868;8.646;2023-06-10T10:19:28;13.18;;;8.50;;
71207;SDS011;58938;49.868;8.646;2023-06-10T10:21:57;10.30;;;7.88;;
71207;SDS011;58938;49.868;8.646;2023-06-10T10:24:33;12.27;;;8.40;;
71207;SDS011;58938;49.868;8.646;2023-06-10T10:27:01;12.10;;;8.65;;
71207;SDS011;58938;49.868;8.646;2023-06-10T10:29:31;12.55;;;8.30;;
71207;SDS011;58938;49.868;8.646;2023-06-10T10:31:59;12.85;;;9.07;;
71207;SDS011;58938;49.868;8.646;2023-06-10T10:37:30;13.63;;;8.77;;
71207;SDS011;58938;49.868;8.646;2023-06-10T10:39:56;11.98;;;8.35;;
71207;SDS011;58938;49.868;8.646;2023-06-10T10:42:24;12.95;;;9.00;;
71207;SDS011;58938;49.868;8.646;2023-06-10T10:44:51;10.77;;;7.65;;
71207;SDS011;58938;49.868;8.646;2023-06-10T10:47:17;11.23;;;8.10;;
71207;SDS011;58938;49.868;8.646;2023-06-10T10:49:43;13.03;;;7.87;;
71207;SDS011;58938;49.868;8.646;2023-06-10T10:52:11;11.63;;;7.50;;
71207;SDS011;58938;49.868;8.646;2023-06-10T10:54:39;9.75;;;7.50;;
71207;SDS011;58938;49.868;8.646;2023-06-10T11:02:09;9.73;;;5.97;;
71207;SDS011;58938;49.868;8.646;2023-06-10T11:04:35;7.57;;;5.90;;
71207;SDS011;58938;49.868;8.646;2023-06-10T11:07:07;9.60;;;6.53;;
71207;SDS011;58938;49.868;8.646;2023-06-10T11:09:34;8.52;;;5.70;;
71207;SDS011;58938;49.868;8.646;2023-06-10T11:12:00;7.10;;;5.30;;
71207;SDS011;58938;49.868;8.646;2023-06-10T11:14:26;8.77;;;6.00;;
71207;SDS011;58938;49.868;8.646;2023-06-10T11:16:58;8.07;;;5.50;;
71207;SDS011;58938;49.868;8.646;2023-06-10T11:19:37;8.35;;;5.60;;
71207;SDS011;58938;49.868;8.646;2023-06-10T11:22:15;7.88;;;5.53;;
71207;SDS011;58938;49.868;8.646;2023-06-10T11:24:41;8.43;;;5.20;;
71207;SDS011;58938;49.868;8.646;2023-06-10T11:27:25;8.00;;;5.10;;
71207;SDS011;58938;49.868;8.646;2023-06-10T11:29:58;7.40;;;4.82;;
71207;SDS011;58938;49.868;8.646;2023-06-10T11:32:31;15.57;;;5.07;;
71207;SDS011;58938;49.868;8.646;2023-06-10T11:34:57;7.70;;;5.20;;
71207;SDS011;58938;49.868;8.646;2023-06-10T11:37:23;8.15;;;5.43;;
71207;SDS011;58938;49.868;8.646;2023-06-10T11:39:53;6.43;;;4.80;;
71207;SDS011;58938;49.868;8.646;2023-06-10T11:42:19;6.82;;;5.10;;
71207;SDS011;58938;49.868;8.646;2023-06-10T11:44:51;6.35;;;4.45;;
71207;SDS011;58938;49.868;8.646;2023-06-10T11:47:18;10.60;;;5.07;;
71207;SDS011;58938;49.868;8.646;2023-06-10T11:49:45;9.02;;;5.20;;
71207;SDS011;58938;49.868;8.646;2023-06-10T11:52:11;7.32;;;4.80;;
71207;SDS011;58938;49.868;8.646;2023-06-10T11:54:37;8.65;;;5.40;;
71207;SDS011;58938;49.868;8.646;2023-06-10T11:57:03;7.65;;;4.97;;
71207;SDS011;58938;49.868;8.646;2023-06-10T11:59:30;7.47;;;5.10;;
71207;SDS011;58938;49.868;8.646;2023-06-10T12:01:56;10.93;;;5.30;;
71207;SDS011;58938;49.868;8.646;2023-06-10T12:04:22;8.35;;;5.75;;
71207;SDS011;58938;49.868;8.646;2023-06-10T12:06:48;7.28;;;5.35;;
71207;SDS011;58938;49.868;8.646;2023-06-10T12:11:41;7.70;;;5.00;;
71207;SDS011;58938;49.868;8.646;2023-06-10T12:14:08;9.57;;;5.35;;
71207;SDS011;58938;49.868;8.646;2023-06-10T12:16:34;8.05;;;5.65;;
71207;SDS011;58938;49.868;8.646;2023-06-10T12:19:00;8.48;;;5.55;;
71207;SDS011;58938;49.868;8.646;2023-06-10T12:21:27;7.90;;;5.30;;
71207;SDS011;58938;49.868;8.646;2023-06-10T12:24:00;9.35;;;5.30;;
71207;SDS011;58938;49.868;8.646;2023-06-10T12:29:17;9.85;;;6.28;;
71207;SDS011;58938;49.868;8.646;2023-06-10T12:34:32;7.90;;;5.23;;
71207;SDS011;58938;49.868;8.646;2023-06-10T12:37:00;7.88;;;5.50;;
71207;SDS011;58938;49.868;8.646;2023-06-10T12:39:26;8.95;;;5.90;;
71207;SDS011;58938;49.868;8.646;2023-06-10T12:41:52;6.97;;;5.13;;
71207;SDS011;58938;49.868;8.646;2023-06-10T12:44:19;9.45;;;6.00;;
71207;SDS011;58938;49.868;8.646;2023-06-10T12:46:54;8.40;;;5.67;;
71207;SDS011;58938;49.868;8.646;2023-06-10T12:49:20;8.35;;;5.38;;
71207;SDS011;58938;49.868;8.646;2023-06-10T12:51:46;8.30;;;5.68;;
71207;SDS011;58938;49.868;8.646;2023-06-10T12:54:13;7.65;;;4.97;;
71207;SDS011;58938;49.868;8.646;2023-06-10T12:56:39;9.82;;;5.43;;
71207;SDS011;58938;49.868;8.646;2023-06-10T12:59:05;10.03;;;6.00;;
71207;SDS011;58938;49.868;8.646;2023-06-10T13:01:31;7.97;;;5.13;;
71207;SDS011;58938;49.868;8.646;2023-06-10T13:03:58;8.43;;;5.65;;
71207;SDS011;58938;49.868;8.646;2023-06-10T13:06:24;8.80;;;6.25;;
71207;SDS011;58938;49.868;8.646;2023-06-10T13:08:51;10.25;;;6.18;;
71207;SDS011;58938;49.868;8.646;2023-06-10T13:11:17;6.93;;;5.53;;
71207;SDS011;58938;49.868;8.646;2023-06-10T13:13:43;8.40;;;5.70;;
71207;SDS011;58938;49.868;8.646;2023-06-10T13:16:12;8.05;;;5.97;;
71207;SDS011;58938;49.868;8.646;2023-06-10T13:18:38;8.48;;;5.93;;
71207;SDS011;58938;49.868;8.646;2023-06-10T13:21:04;8.93;;;6.30;;
71207;SDS011;58938;49.868;8.646;2023-06-10T13:23:30;9.05;;;6.22;;
71207;SDS011;58938;49.868;8.646;2023-06-10T13:25:56;10.48;;;6.32;;
71207;SDS011;58938;49.868;8.646;2023-06-10T13:28:22;9.18;;;5.85;;
71207;SDS011;58938;49.868;8.646;2023-06-10T13:30:48;8.23;;;5.73;;
71207;SDS011;58938;49.868;8.646;2023-06-10T13:33:15;8.23;;;5.90;;
71207;SDS011;58938;49.868;8.646;2023-06-10T13:35:41;9.63;;;5.47;;
71207;SDS011;58938;49.868;8.646;2023-06-10T13:38:07;7.15;;;5.43;;
71207;SDS011;58938;49.868;8.646;2023-06-10T13:40:33;12.93;;;5.85;;
71207;SDS011;58938;49.868;8.646;2023-06-10T13:42:59;7.73;;;6.13;;
71207;SDS011;58938;49.868;8.646;2023-06-10T13:45:25;9.18;;;6.00;;
71207;SDS011;58938;49.868;8.646;2023-06-10T13:47:52;11.30;;;6.20;;
71207;SDS011;58938;49.868;8.646;2023-06-10T13:50:18;7.60;;;5.97;;
71207;SDS011;58938;49.868;8.646;2023-06-10T13:52:45;8.00;;;6.13;;
71207;SDS011;58938;49.868;8.646;2023-06-10T13:55:11;9.45;;;5.93;;
71207;SDS011;58938;49.868;8.646;2023-06-10T13:57:37;9.85;;;6.13;;
71207;SDS011;58938;49.868;8.646;2023-06-10T14:00:03;9.68;;;6.38;;
71207;SDS011;58938;49.868;8.646;2023-06-10T14:02:29;8.20;;;5.95;;
71207;SDS011;58938;49.868;8.646;2023-06-10T14:04:55;9.73;;;6.23;;
71207;SDS011;58938;49.868;8.646;2023-06-10T14:07:21;9.20;;;5.65;;
71207;SDS011;58938;49.868;8.646;2023-06-10T14:09:47;8.77;;;5.75;;
71207;SDS011;58938;49.868;8.646;2023-06-10T14:12:13;7.78;;;5.80;;
71207;SDS011;58938;49.868;8.646;2023-06-10T14:14:39;8.57;;;5.53;;
71207;SDS011;58938;49.868;8.646;2023-06-10T14:17:06;8.07;;;5.60;;
71207;SDS011;58938;49.868;8.646;2023-06-10T14:19:32;8.02;;;6.32;;
71207;SDS011;58938;49.868;8.646;2023-06-10T14:21:58;8.35;;;6.03;;
71207;SDS011;58938;49.868;8.646;2023-06-10T14:24:24;10.75;;;5.85;;
71207;SDS011;58938;49.868;8.646;2023-06-10T14:26:50;8.05;;;6.10;;
71207;SDS011;58938;49.868;8.646;2023-06-10T14:29:16;8.30;;;6.10;;
71207;SDS011;58938;49.868;8.646;2023-06-10T14:31:44;9.43;;;6.97;;
71207;SDS011;58938;49.868;8.646;2023-06-10T14:34:10;8.82;;;6.32;;
71207;SDS011;58938;49.868;8.646;2023-06-10T14:36:36;9.07;;;6.43;;
71207;SDS011;58938;49.868;8.646;2023-06-10T14:39:02;9.93;;;6.25;;
71207;SDS011;58938;49.868;8.646;2023-06-10T14:41:29;9.87;;;5.97;;
71207;SDS011;58938;49.868;8.646;2023-06-10T14:43:55;9.52;;;6.18;;
71207;SDS011;58938;49.868;8.646;2023-06-10T14:46:21;8.07;;;6.30;;
71207;SDS011;58938;49.868;8.646;2023-06-10T14:48:47;7.90;;;6.22;;
71207;SDS011;58938;49.868;8.646;2023-06-10T14:51:14;8.43;;;5.75;;